createdAt,value
2017-08-22T00:00:48.285Z,9.00
2017-08-22T00:01:48.331Z,9.06
2017-08-22T00:02:48.333Z,9.19
2017-08-22T00:03:48.323Z,9.19
2017-08-22T00:04:48.333Z,9.25
2017-08-22T00:05:48.348Z,9.25
2017-08-22T00:06:48.356Z,9.31
2017-08-22T00:07:48.370Z,9.38
2017-08-22T00:08:48.429Z,9.38
2017-08-22T00:09:48.394Z,9.38
2017-08-22T00:10:48.448Z,9.38
2017-08-22T00:11:48.418Z,9.38
2017-08-22T00:12:48.429Z,9.38
2017-08-22T00:13:48.442Z,9.38
2017-08-22T00:14:48.454Z,9.38
2017-08-22T00:15:48.466Z,9.38
2017-08-22T00:16:48.477Z,9.31
2017-08-22T00:17:48.490Z,9.25
2017-08-22T00:18:48.655Z,9.25
2017-08-22T00:19:48.544Z,9.25
2017-08-22T00:20:48.524Z,9.31
2017-08-22T00:21:48.542Z,9.38
2017-08-22T00:22:48.590Z,9.44
2017-08-22T00:23:48.570Z,9.44
2017-08-22T00:24:48.582Z,9.44
2017-08-22T00:25:48.586Z,9.44
2017-08-22T00:26:48.599Z,9.44
2017-08-22T00:27:48.611Z,9.38
2017-08-22T00:28:48.621Z,9.31
2017-08-22T00:29:48.637Z,9.31
2017-08-22T00:30:48.645Z,9.25
2017-08-22T00:31:48.658Z,9.19
2017-08-22T00:32:48.676Z,9.19
2017-08-22T00:33:48.683Z,9.06
2017-08-22T00:34:48.696Z,9.06
2017-08-22T00:35:48.707Z,9.13
2017-08-22T00:36:48.719Z,9.13
2017-08-22T00:37:48.730Z,9.13
2017-08-22T00:38:48.743Z,9.19
2017-08-22T00:39:48.754Z,9.25
2017-08-22T00:40:48.768Z,9.31
2017-08-22T00:41:48.780Z,9.38
2017-08-22T00:42:48.790Z,9.44
2017-08-22T00:43:48.803Z,9.50
2017-08-22T00:44:48.814Z,9.56
2017-08-22T00:45:48.829Z,9.63
2017-08-22T00:46:48.844Z,9.63
2017-08-22T00:47:48.852Z,9.69
2017-08-22T00:48:48.863Z,9.69
2017-08-22T00:49:48.876Z,9.69
2017-08-22T00:50:48.888Z,9.69
2017-08-22T00:51:48.898Z,9.69
2017-08-22T00:52:48.913Z,9.63
2017-08-22T00:53:48.924Z,9.56
2017-08-22T00:54:48.936Z,9.56
2017-08-22T00:55:48.949Z,9.50
2017-08-22T00:56:48.960Z,9.50
2017-08-22T00:57:48.973Z,9.44
2017-08-22T00:58:49.000Z,9.44
2017-08-22T00:59:48.995Z,9.44
2017-08-22T01:00:49.008Z,9.44
2017-08-22T01:01:49.024Z,9.44
2017-08-22T01:02:49.032Z,9.50
2017-08-22T01:03:49.055Z,9.50
2017-08-22T01:04:49.057Z,9.50
2017-08-22T01:05:49.071Z,9.50
2017-08-22T01:06:49.079Z,9.44
2017-08-22T01:07:49.097Z,9.44
2017-08-22T01:08:49.103Z,9.38
2017-08-22T01:09:49.117Z,9.31
2017-08-22T01:10:49.128Z,9.31
2017-08-22T01:11:49.144Z,9.25
2017-08-22T01:12:49.153Z,9.25
2017-08-22T01:13:49.167Z,9.19
2017-08-22T01:14:49.211Z,9.13
2017-08-22T01:15:49.186Z,9.13
2017-08-22T01:16:49.200Z,9.06
2017-08-22T01:17:49.211Z,9.06
2017-08-22T01:18:49.267Z,9.00
2017-08-22T01:19:49.236Z,9.00
2017-08-22T01:20:49.244Z,9.00
2017-08-22T01:21:49.261Z,9.06
2017-08-22T01:22:49.274Z,9.06
2017-08-22T01:23:49.283Z,9.06
2017-08-22T01:24:49.293Z,9.13
2017-08-22T01:25:49.306Z,9.13
2017-08-22T01:26:49.318Z,9.13
2017-08-22T01:27:49.331Z,9.13
2017-08-22T01:28:49.342Z,9.13
2017-08-22T01:29:49.482Z,9.13
2017-08-22T01:30:49.371Z,9.19
2017-08-22T01:31:49.422Z,9.19
2017-08-22T01:32:49.390Z,9.19
2017-08-22T01:33:49.403Z,9.13
2017-08-22T01:34:49.413Z,9.13
2017-08-22T01:35:49.485Z,9.19
2017-08-22T01:36:49.444Z,9.19
2017-08-22T01:37:49.449Z,9.19
2017-08-22T01:38:49.462Z,9.13
2017-08-22T01:39:49.474Z,9.13
2017-08-22T01:40:49.498Z,9.06
2017-08-22T01:41:49.498Z,9.00
2017-08-22T01:42:49.508Z,8.94
2017-08-22T01:43:49.520Z,8.94
2017-08-22T01:44:49.532Z,8.88
2017-08-22T01:45:49.544Z,8.88
2017-08-22T01:46:49.556Z,8.81
2017-08-22T01:47:49.569Z,8.81
2017-08-22T01:48:49.579Z,8.81
2017-08-22T01:49:49.593Z,8.88
2017-08-22T01:50:49.604Z,8.88
2017-08-22T01:51:49.616Z,8.88
2017-08-22T01:52:49.798Z,8.94
2017-08-22T01:53:49.641Z,9.00
2017-08-22T01:54:49.652Z,9.06
2017-08-22T01:55:49.663Z,9.06
2017-08-22T01:56:49.677Z,9.19
2017-08-22T01:57:49.687Z,9.25
2017-08-22T01:58:49.697Z,9.25
2017-08-22T01:59:49.712Z,9.38
2017-08-22T02:00:49.721Z,9.38
2017-08-22T02:01:49.734Z,9.44
2017-08-22T02:02:49.819Z,9.50
2017-08-22T02:03:49.763Z,9.50
2017-08-22T02:04:49.771Z,9.50
2017-08-22T02:05:49.791Z,9.44
2017-08-22T02:06:49.794Z,9.38
2017-08-22T02:07:49.805Z,9.25
2017-08-22T02:08:49.815Z,9.25
2017-08-22T02:09:49.829Z,9.13
2017-08-22T02:10:49.840Z,9.06
2017-08-22T02:11:49.882Z,9.00
2017-08-22T02:12:49.864Z,9.00
2017-08-22T02:13:49.885Z,9.00
2017-08-22T02:14:49.893Z,9.00
2017-08-22T02:15:49.901Z,9.00
2017-08-22T02:16:49.912Z,8.94
2017-08-22T02:17:49.929Z,8.94
2017-08-22T02:18:49.933Z,8.88
2017-08-22T02:19:49.944Z,8.88
2017-08-22T02:20:49.955Z,8.81
2017-08-22T02:21:49.970Z,8.81
2017-08-22T02:22:49.980Z,8.75
2017-08-22T02:23:49.994Z,8.69
2017-08-22T02:24:50.004Z,8.69
2017-08-22T02:25:50.015Z,8.69
2017-08-22T02:26:50.027Z,8.69
2017-08-22T02:27:50.038Z,8.69
2017-08-22T02:28:50.050Z,8.69
2017-08-22T02:29:50.062Z,8.75
2017-08-22T02:30:50.074Z,8.75
2017-08-22T02:31:50.087Z,8.75
2017-08-22T02:32:50.098Z,8.75
2017-08-22T02:33:50.109Z,8.75
2017-08-22T02:34:50.118Z,8.75
2017-08-22T02:35:50.132Z,8.75
2017-08-22T02:36:50.144Z,8.75
2017-08-22T02:37:50.154Z,8.69
2017-08-22T02:38:50.167Z,8.69
2017-08-22T02:39:50.177Z,8.63
2017-08-22T02:40:50.187Z,8.63
2017-08-22T02:41:50.202Z,8.56
2017-08-22T02:42:50.210Z,8.63
2017-08-22T02:43:50.224Z,8.56
2017-08-22T02:44:50.234Z,8.56
2017-08-22T02:45:50.245Z,8.56
2017-08-22T02:46:50.258Z,8.56
2017-08-22T02:47:50.269Z,8.56
2017-08-22T02:48:50.289Z,8.56
2017-08-22T02:49:50.291Z,8.56
2017-08-22T02:50:50.305Z,8.50
2017-08-22T02:51:50.320Z,8.56
2017-08-22T02:52:50.325Z,8.56
2017-08-22T02:53:50.347Z,8.56
2017-08-22T02:54:50.353Z,8.50
2017-08-22T02:55:50.362Z,8.44
2017-08-22T02:56:50.401Z,8.44
2017-08-22T02:57:50.390Z,8.38
2017-08-22T02:58:50.420Z,8.38
2017-08-22T02:59:50.405Z,8.38
2017-08-22T03:00:50.422Z,8.44
2017-08-22T03:01:50.429Z,8.50
2017-08-22T03:02:50.446Z,8.50
2017-08-22T03:03:50.453Z,8.50
2017-08-22T03:04:50.461Z,8.56
2017-08-22T03:05:50.474Z,8.63
2017-08-22T03:06:50.485Z,8.63
2017-08-22T03:07:50.497Z,8.63
2017-08-22T03:08:50.510Z,8.56
2017-08-22T03:09:50.520Z,8.56
2017-08-22T03:10:50.532Z,8.56
2017-08-22T03:11:50.549Z,8.63
2017-08-22T03:12:50.553Z,8.63
2017-08-22T03:13:50.566Z,8.56
2017-08-22T03:14:50.577Z,8.56
2017-08-22T03:15:50.591Z,8.56
2017-08-22T03:16:50.598Z,8.63
2017-08-22T03:17:50.610Z,8.56
2017-08-22T03:18:50.623Z,8.50
2017-08-22T03:19:50.631Z,8.44
2017-08-22T03:20:50.644Z,8.31
2017-08-22T03:21:50.657Z,8.13
2017-08-22T03:22:50.668Z,8.13
2017-08-22T03:23:50.684Z,8.19
2017-08-22T03:24:50.689Z,8.13
2017-08-22T03:25:50.710Z,8.13
2017-08-22T03:26:50.714Z,8.19
2017-08-22T03:27:50.725Z,8.25
2017-08-22T03:28:50.736Z,8.25
2017-08-22T03:29:50.748Z,8.25
2017-08-22T03:30:50.759Z,8.19
2017-08-22T03:31:50.769Z,8.19
2017-08-22T03:32:50.789Z,8.19
2017-08-22T03:33:50.793Z,8.19
2017-08-22T03:34:50.803Z,8.19
2017-08-22T03:35:50.814Z,8.25
2017-08-22T03:36:50.829Z,8.25
2017-08-22T03:37:50.840Z,8.31
2017-08-22T03:38:50.849Z,8.31
2017-08-22T03:39:50.861Z,8.38
2017-08-22T03:40:50.869Z,8.38
2017-08-22T03:41:50.884Z,8.38
2017-08-22T03:42:50.893Z,8.38
2017-08-22T03:43:50.905Z,8.38
2017-08-22T03:44:50.917Z,8.31
2017-08-22T03:45:50.928Z,8.31
2017-08-22T03:46:50.938Z,8.31
2017-08-22T03:47:50.951Z,8.25
2017-08-22T03:48:50.960Z,8.31
2017-08-22T03:49:50.973Z,8.31
2017-08-22T03:50:50.983Z,8.38
2017-08-22T03:51:50.999Z,8.38
2017-08-22T03:52:51.006Z,8.38
2017-08-22T03:53:51.018Z,8.38
2017-08-22T03:54:51.029Z,8.44
2017-08-22T03:55:51.039Z,8.44
2017-08-22T03:56:51.049Z,8.44
2017-08-22T03:57:51.072Z,8.44
2017-08-22T03:58:51.074Z,8.44
2017-08-22T03:59:51.085Z,8.38
2017-08-22T04:00:51.100Z,8.38
2017-08-22T04:01:51.108Z,8.38
2017-08-22T04:02:51.116Z,8.38
2017-08-22T04:03:51.128Z,8.44
2017-08-22T04:04:51.138Z,8.38
2017-08-22T04:05:51.151Z,8.31
2017-08-22T04:06:51.163Z,8.19
2017-08-22T04:07:51.174Z,8.19
2017-08-22T04:08:51.182Z,8.13
2017-08-22T04:09:51.195Z,8.13
2017-08-22T04:10:51.205Z,8.13
2017-08-22T04:11:51.216Z,8.06
2017-08-22T04:12:51.226Z,8.00
2017-08-22T04:13:51.236Z,8.00
2017-08-22T04:14:51.248Z,8.00
2017-08-22T04:15:51.261Z,8.00
2017-08-22T04:16:51.269Z,7.94
2017-08-22T04:17:51.282Z,8.00
2017-08-22T04:18:51.292Z,7.94
2017-08-22T04:19:51.302Z,8.00
2017-08-22T04:20:51.314Z,8.00
2017-08-22T04:21:51.326Z,8.00
2017-08-22T04:22:51.336Z,7.94
2017-08-22T04:23:51.350Z,7.94
2017-08-22T04:24:51.358Z,7.94
2017-08-22T04:25:51.371Z,7.94
2017-08-22T04:26:51.396Z,7.94
2017-08-22T04:27:51.390Z,7.94
2017-08-22T04:28:51.412Z,7.94
2017-08-22T04:29:51.412Z,7.88
2017-08-22T04:30:51.423Z,7.81
2017-08-22T04:31:51.436Z,7.75
2017-08-22T04:32:51.445Z,7.75
2017-08-22T04:33:51.458Z,7.81
2017-08-22T04:34:51.471Z,7.81
2017-08-22T04:35:51.479Z,7.81
2017-08-22T04:36:51.490Z,7.81
2017-08-22T04:37:51.501Z,7.81
2017-08-22T04:38:51.511Z,7.75
2017-08-22T04:39:51.522Z,7.75
2017-08-22T04:40:51.534Z,7.69
2017-08-22T04:41:51.545Z,7.75
2017-08-22T04:42:51.556Z,7.75
2017-08-22T04:43:51.565Z,7.75
2017-08-22T04:44:51.577Z,7.81
2017-08-22T04:45:51.588Z,7.81
2017-08-22T04:46:51.600Z,7.81
2017-08-22T04:47:51.610Z,7.88
2017-08-22T04:48:51.620Z,7.88
2017-08-22T04:49:51.632Z,7.94
2017-08-22T04:50:51.642Z,7.94
2017-08-22T04:51:51.653Z,8.00
2017-08-22T04:52:51.664Z,8.00
2017-08-22T04:53:51.674Z,8.00
2017-08-22T04:54:51.689Z,8.00
2017-08-22T04:55:51.698Z,8.00
2017-08-22T04:56:51.708Z,7.94
2017-08-22T04:57:51.720Z,7.94
2017-08-22T04:58:51.730Z,7.94
2017-08-22T04:59:51.746Z,8.00
2017-08-22T05:00:51.752Z,8.00
2017-08-22T05:01:51.763Z,8.06
2017-08-22T05:02:51.773Z,8.13
2017-08-22T05:03:51.785Z,8.13
2017-08-22T05:04:51.796Z,8.13
2017-08-22T05:05:51.810Z,8.19
2017-08-22T05:06:51.821Z,8.19
2017-08-22T05:07:51.828Z,8.19
2017-08-22T05:08:51.841Z,8.13
2017-08-22T05:09:51.851Z,8.19
2017-08-22T05:10:51.863Z,8.19
2017-08-22T05:11:51.873Z,8.25
2017-08-22T05:12:51.883Z,8.25
2017-08-22T05:13:51.895Z,8.25
2017-08-22T05:14:51.907Z,8.31
2017-08-22T05:15:51.917Z,8.31
2017-08-22T05:16:51.927Z,8.38
2017-08-22T05:17:51.939Z,8.38
2017-08-22T05:18:51.950Z,8.38
2017-08-22T05:19:51.959Z,8.44
2017-08-22T05:20:51.972Z,8.44
2017-08-22T05:21:51.988Z,8.44
2017-08-22T05:22:51.996Z,8.44
2017-08-22T05:23:52.004Z,8.50
2017-08-22T05:24:52.016Z,8.56
2017-08-22T05:25:52.029Z,8.56
2017-08-22T05:26:52.040Z,8.56
2017-08-22T05:27:52.050Z,8.63
2017-08-22T05:28:52.061Z,8.69
2017-08-22T05:29:52.074Z,8.69
2017-08-22T05:30:52.084Z,8.75
2017-08-22T05:31:52.097Z,8.75
2017-08-22T05:32:52.104Z,8.81
2017-08-22T05:33:52.117Z,8.88
2017-08-22T05:34:52.129Z,8.88
2017-08-22T05:35:52.138Z,8.94
2017-08-22T05:36:52.151Z,9.00
2017-08-22T05:37:52.162Z,9.00
2017-08-22T05:38:52.172Z,9.06
2017-08-22T05:39:52.184Z,9.06
2017-08-22T05:40:52.194Z,9.06
2017-08-22T05:41:52.210Z,9.13
2017-08-22T05:42:52.216Z,9.19
2017-08-22T05:43:52.228Z,9.19
2017-08-22T05:44:52.239Z,9.25
2017-08-22T05:45:52.253Z,9.25
2017-08-22T05:46:52.264Z,9.25
2017-08-22T05:47:52.279Z,9.31
2017-08-22T05:48:52.287Z,9.31
2017-08-22T05:49:52.297Z,9.31
2017-08-22T05:50:52.313Z,9.38
2017-08-22T05:51:52.319Z,9.44
2017-08-22T05:52:52.330Z,9.50
2017-08-22T05:53:52.344Z,9.50
2017-08-22T05:54:52.354Z,9.56
2017-08-22T05:55:52.365Z,9.63
2017-08-22T05:56:52.376Z,9.69
2017-08-22T05:57:52.389Z,9.69
2017-08-22T05:58:52.398Z,9.75
2017-08-22T05:59:52.414Z,9.81
2017-08-22T06:00:52.430Z,9.94
2017-08-22T06:01:52.434Z,10.00
2017-08-22T06:02:52.457Z,10.13
2017-08-22T06:03:52.456Z,10.25
2017-08-22T06:04:52.469Z,10.44
2017-08-22T06:05:52.481Z,10.69
2017-08-22T06:06:52.493Z,11.19
2017-08-22T06:07:52.505Z,11.94
2017-08-22T06:08:52.517Z,12.94
2017-08-22T06:09:52.530Z,13.75
2017-08-22T06:10:52.541Z,14.25
2017-08-22T06:11:52.555Z,14.69
2017-08-22T06:12:52.567Z,14.81
2017-08-22T06:13:52.584Z,14.88
2017-08-22T06:14:52.594Z,14.94
2017-08-22T06:15:52.609Z,15.19
2017-08-22T06:16:52.624Z,15.50
2017-08-22T06:17:52.638Z,15.75
2017-08-22T06:18:52.652Z,16.00
2017-08-22T06:19:52.669Z,16.31
2017-08-22T06:20:52.682Z,16.88
2017-08-22T06:21:52.703Z,17.25
2017-08-22T06:22:52.714Z,17.56
2017-08-22T06:23:52.731Z,17.69
2017-08-22T06:24:52.745Z,17.81
2017-08-22T06:25:52.765Z,17.69
2017-08-22T06:26:52.778Z,17.50
2017-08-22T06:27:52.797Z,17.50
2017-08-22T06:28:52.815Z,17.88
2017-08-22T06:29:52.831Z,18.50
2017-08-22T06:30:52.845Z,18.69
2017-08-22T06:31:52.865Z,19.00
2017-08-22T06:32:52.880Z,19.38
2017-08-22T06:33:52.897Z,19.69
2017-08-22T06:34:52.918Z,20.06
2017-08-22T06:35:52.933Z,20.44
2017-08-22T06:36:52.949Z,20.88
2017-08-22T06:37:52.982Z,21.00
2017-08-22T06:38:52.984Z,21.19
2017-08-22T06:39:53.010Z,21.38
2017-08-22T06:40:53.023Z,21.75
2017-08-22T06:41:53.043Z,21.56
2017-08-22T06:42:53.061Z,21.63
2017-08-22T06:43:53.082Z,21.88
2017-08-22T06:44:53.097Z,21.88
2017-08-22T06:45:53.117Z,22.38
2017-08-22T06:46:53.133Z,23.00
2017-08-22T06:47:53.154Z,23.06
2017-08-22T06:48:53.173Z,23.25
2017-08-22T06:49:53.195Z,23.81
2017-08-22T06:50:53.211Z,23.75
2017-08-22T06:51:53.230Z,23.75
2017-08-22T06:52:53.251Z,23.88
2017-08-22T06:53:53.271Z,24.38
2017-08-22T06:54:53.290Z,24.81
2017-08-22T06:55:53.309Z,24.50
2017-08-22T06:56:53.328Z,24.75
2017-08-22T06:57:53.348Z,24.69
2017-08-22T06:58:53.367Z,25.19
2017-08-22T06:59:53.393Z,25.69
2017-08-22T07:00:53.408Z,25.94
2017-08-22T07:01:53.428Z,25.94
2017-08-22T07:02:53.455Z,26.19
2017-08-22T07:03:53.467Z,26.31
2017-08-22T07:04:53.484Z,26.56
2017-08-22T07:05:53.508Z,26.75
2017-08-22T07:06:53.529Z,27.13
2017-08-22T07:07:53.549Z,27.31
2017-08-22T07:08:53.566Z,26.88
2017-08-22T07:09:53.589Z,26.63
2017-08-22T07:10:53.608Z,26.94
2017-08-22T07:11:53.627Z,27.56
2017-08-22T07:12:53.648Z,27.75
2017-08-22T07:13:53.671Z,27.88
2017-08-22T07:14:53.689Z,28.25
2017-08-22T07:15:53.710Z,28.63
2017-08-22T07:16:53.730Z,28.25
2017-08-22T07:17:53.753Z,28.63
2017-08-22T07:18:53.773Z,29.13
2017-08-22T07:19:53.799Z,29.25
2017-08-22T07:20:53.816Z,29.44
2017-08-22T07:21:53.836Z,29.63
2017-08-22T07:22:53.856Z,29.81
2017-08-22T07:23:53.878Z,30.50
2017-08-22T07:24:53.898Z,30.06
2017-08-22T07:25:53.920Z,29.81
2017-08-22T07:26:53.940Z,29.88
2017-08-22T07:27:53.962Z,30.06
2017-08-22T07:28:53.982Z,30.31
2017-08-22T07:29:54.007Z,30.25
2017-08-22T07:30:54.031Z,30.38
2017-08-22T07:31:54.087Z,30.94
2017-08-22T07:32:54.068Z,31.56
2017-08-22T07:33:54.091Z,31.88
2017-08-22T07:34:54.111Z,32.31
2017-08-22T07:35:54.132Z,32.31
2017-08-22T07:36:54.152Z,31.63
2017-08-22T07:37:54.178Z,30.75
2017-08-22T07:38:54.198Z,30.75
2017-08-22T07:39:54.220Z,30.25
2017-08-22T07:40:54.240Z,30.44
2017-08-22T07:41:54.262Z,30.69
2017-08-22T07:42:54.283Z,31.50
2017-08-22T07:43:54.307Z,31.81
2017-08-22T07:44:54.326Z,32.13
2017-08-22T07:45:54.351Z,32.44
2017-08-22T07:46:54.372Z,32.75
2017-08-22T07:47:54.389Z,33.44
2017-08-22T07:48:54.412Z,34.06
2017-08-22T07:49:54.436Z,34.63
2017-08-22T07:50:54.455Z,35.00
2017-08-22T07:51:54.479Z,35.63
2017-08-22T07:52:54.499Z,35.06
2017-08-22T07:53:54.522Z,34.69
2017-08-22T07:54:54.544Z,34.25
2017-08-22T07:55:54.564Z,33.94
2017-08-22T07:56:54.588Z,33.44
2017-08-22T07:57:54.607Z,33.06
2017-08-22T07:58:54.629Z,32.75
2017-08-22T07:59:54.649Z,33.13
2017-08-22T08:00:54.675Z,33.63
2017-08-22T08:01:54.692Z,34.38
2017-08-22T08:02:54.714Z,34.81
2017-08-22T08:03:54.736Z,35.00
2017-08-22T08:04:54.753Z,34.25
2017-08-22T08:05:54.779Z,34.00
2017-08-22T08:06:54.799Z,33.81
2017-08-22T08:07:54.819Z,34.38
2017-08-22T08:08:54.839Z,34.56
2017-08-22T08:09:54.863Z,35.25
2017-08-22T08:10:54.885Z,36.13
2017-08-22T08:11:54.903Z,36.31
2017-08-22T08:12:54.925Z,36.75
2017-08-22T08:13:54.947Z,36.50
2017-08-22T08:14:54.965Z,36.88
2017-08-22T08:15:54.991Z,37.25
2017-08-22T08:16:55.008Z,36.94
2017-08-22T08:17:55.034Z,36.44
2017-08-22T08:18:55.051Z,36.88
2017-08-22T08:19:55.072Z,37.31
2017-08-22T08:20:55.103Z,37.88
2017-08-22T08:21:55.117Z,38.38
2017-08-22T08:22:55.132Z,38.19
2017-08-22T08:23:55.154Z,37.81
2017-08-22T08:24:55.182Z,38.25
2017-08-22T08:25:55.196Z,38.25
2017-08-22T08:26:55.216Z,36.94
2017-08-22T08:27:55.238Z,37.00
2017-08-22T08:28:55.257Z,37.56
2017-08-22T08:29:55.282Z,38.13
2017-08-22T08:30:55.298Z,38.63
2017-08-22T08:31:55.319Z,38.63
2017-08-22T08:32:55.339Z,38.94
2017-08-22T08:33:55.361Z,38.69
2017-08-22T08:34:55.379Z,38.69
2017-08-22T08:35:55.409Z,38.25
2017-08-22T08:36:55.418Z,38.50
2017-08-22T08:37:55.441Z,38.69
2017-08-22T08:38:55.459Z,39.38
2017-08-22T08:39:55.485Z,40.38
2017-08-22T08:40:55.500Z,40.31
2017-08-22T08:41:55.522Z,40.00
2017-08-22T08:42:55.538Z,39.94
2017-08-22T08:43:55.559Z,39.06
2017-08-22T08:44:55.577Z,39.00
2017-08-22T08:45:55.596Z,39.00
2017-08-22T08:46:55.616Z,39.25
2017-08-22T08:47:55.638Z,39.13
2017-08-22T08:48:55.652Z,39.63
2017-08-22T08:49:55.676Z,39.44
2017-08-22T08:50:55.693Z,40.06
2017-08-22T08:51:55.713Z,40.31
2017-08-22T08:52:55.732Z,40.06
2017-08-22T08:53:55.755Z,38.75
2017-08-22T08:54:55.770Z,38.38
2017-08-22T08:55:55.788Z,37.69
2017-08-22T08:56:55.807Z,37.38
2017-08-22T08:57:55.829Z,37.06
2017-08-22T08:58:55.848Z,37.50
2017-08-22T08:59:55.865Z,37.81
2017-08-22T09:00:55.882Z,37.63
2017-08-22T09:01:55.901Z,37.69
2017-08-22T09:02:55.919Z,37.94
2017-08-22T09:03:55.939Z,38.75
2017-08-22T09:04:55.960Z,40.06
2017-08-22T09:05:55.978Z,40.81
2017-08-22T09:06:55.995Z,41.13
2017-08-22T09:07:56.015Z,41.44
2017-08-22T09:08:56.030Z,40.88
2017-08-22T09:09:56.049Z,39.94
2017-08-22T09:10:56.068Z,39.81
2017-08-22T09:11:56.086Z,40.06
2017-08-22T09:12:56.103Z,40.25
2017-08-22T09:13:56.123Z,40.13
2017-08-22T09:14:56.142Z,40.44
2017-08-22T09:15:56.160Z,40.69
2017-08-22T09:16:56.176Z,40.50
2017-08-22T09:17:56.195Z,40.50
2017-08-22T09:18:56.215Z,40.06
2017-08-22T09:19:56.230Z,41.38
2017-08-22T09:20:56.251Z,41.44
2017-08-22T09:21:56.266Z,40.94
2017-08-22T09:22:56.286Z,41.56
2017-08-22T09:23:56.305Z,42.38
2017-08-22T09:24:56.321Z,42.19
2017-08-22T09:25:56.340Z,42.25
2017-08-22T09:26:56.358Z,43.19
2017-08-22T09:27:56.378Z,43.25
2017-08-22T09:28:56.395Z,43.81
2017-08-22T09:29:56.412Z,43.94
2017-08-22T09:30:56.431Z,43.50
2017-08-22T09:31:56.448Z,43.19
2017-08-22T09:32:56.465Z,43.25
2017-08-22T09:33:56.485Z,43.81
2017-08-22T09:34:56.503Z,44.31
2017-08-22T09:35:56.524Z,44.19
2017-08-22T09:36:56.538Z,44.44
2017-08-22T09:37:56.564Z,44.13
2017-08-22T09:38:56.573Z,43.00
2017-08-22T09:39:56.595Z,43.06
2017-08-22T09:40:56.645Z,44.00
2017-08-22T09:41:56.629Z,44.81
2017-08-22T09:42:56.648Z,44.63
2017-08-22T09:43:56.664Z,44.50
2017-08-22T09:44:56.683Z,44.25
2017-08-22T09:45:56.704Z,44.38
2017-08-22T09:46:56.717Z,45.00
2017-08-22T09:47:56.754Z,44.50
2017-08-22T09:48:56.753Z,44.63
2017-08-22T09:49:56.773Z,43.94
2017-08-22T09:50:56.790Z,43.19
2017-08-22T09:51:56.811Z,43.00
2017-08-22T09:52:56.824Z,42.94
2017-08-22T09:53:56.845Z,42.56
2017-08-22T09:54:56.875Z,43.06
2017-08-22T09:55:56.880Z,43.44
2017-08-22T09:56:56.899Z,43.88
2017-08-22T09:57:56.916Z,44.56
2017-08-22T09:58:56.933Z,44.06
2017-08-22T09:59:56.951Z,43.31
2017-08-22T10:00:56.975Z,42.75
2017-08-22T10:01:56.992Z,42.25
2017-08-22T10:02:57.007Z,43.06
2017-08-22T10:03:57.025Z,44.63
2017-08-22T10:04:57.041Z,44.56
2017-08-22T10:05:57.058Z,44.69
2017-08-22T10:06:57.075Z,44.81
2017-08-22T10:07:57.093Z,45.06
2017-08-22T10:08:57.111Z,43.81
2017-08-22T10:09:57.131Z,44.63
2017-08-22T10:10:57.157Z,44.31
2017-08-22T10:11:57.163Z,43.81
2017-08-22T10:12:57.184Z,44.44
2017-08-22T10:13:57.199Z,44.69
2017-08-22T10:14:57.217Z,44.75
2017-08-22T10:15:57.232Z,45.44
2017-08-22T10:16:57.253Z,44.94
2017-08-22T10:17:57.270Z,44.88
2017-08-22T10:18:57.287Z,45.44
2017-08-22T10:19:57.313Z,45.81
2017-08-22T10:20:57.323Z,46.19
2017-08-22T10:21:57.340Z,46.19
2017-08-22T10:22:57.358Z,45.19
2017-08-22T10:23:57.376Z,45.13
2017-08-22T10:24:57.407Z,45.25
2017-08-22T10:25:57.412Z,45.56
2017-08-22T10:26:57.429Z,46.38
2017-08-22T10:27:57.449Z,46.31
2017-08-22T10:28:57.465Z,46.56
2017-08-22T10:29:57.483Z,46.81
2017-08-22T10:30:57.500Z,46.75
2017-08-22T10:31:57.516Z,46.38
2017-08-22T10:32:57.533Z,46.50
2017-08-22T10:33:57.553Z,44.75
2017-08-22T10:34:57.571Z,44.69
2017-08-22T10:35:57.587Z,45.63
2017-08-22T10:36:57.608Z,45.63
2017-08-22T10:37:57.625Z,46.13
2017-08-22T10:38:57.653Z,45.63
2017-08-22T10:39:57.657Z,45.25
2017-08-22T10:40:57.677Z,45.06
2017-08-22T10:41:57.692Z,44.94
2017-08-22T10:42:57.711Z,43.31
2017-08-22T10:43:57.729Z,42.06
2017-08-22T10:44:57.745Z,41.56
2017-08-22T10:45:57.765Z,41.00
2017-08-22T10:46:57.780Z,40.19
2017-08-22T10:47:57.803Z,39.06
2017-08-22T10:48:57.820Z,37.44
2017-08-22T10:49:57.835Z,35.19
2017-08-22T10:50:57.855Z,33.31
2017-08-22T10:51:57.870Z,32.13
2017-08-22T10:52:57.887Z,31.56
2017-08-22T10:53:57.906Z,31.25
2017-08-22T10:54:57.923Z,30.75
2017-08-22T10:55:57.941Z,30.06
2017-08-22T10:56:57.965Z,29.13
2017-08-22T10:57:57.971Z,28.88
2017-08-22T10:58:57.995Z,28.44
2017-08-22T10:59:58.013Z,28.63
2017-08-22T11:00:58.031Z,28.75
2017-08-22T11:01:58.050Z,28.88
2017-08-22T11:02:58.071Z,29.06
2017-08-22T11:03:58.089Z,29.06
2017-08-22T11:04:58.100Z,29.44
2017-08-22T11:05:58.119Z,29.75
2017-08-22T11:06:58.140Z,29.88
2017-08-22T11:07:58.159Z,30.06
2017-08-22T11:08:58.175Z,29.44
2017-08-22T11:09:58.193Z,29.44
2017-08-22T11:10:58.214Z,29.25
2017-08-22T11:11:58.231Z,29.19
2017-08-22T11:12:58.249Z,29.38
2017-08-22T11:13:58.267Z,28.81
2017-08-22T11:14:58.284Z,28.63
2017-08-22T11:15:58.309Z,28.81
2017-08-22T11:16:58.320Z,28.44
2017-08-22T11:17:58.344Z,28.00
2017-08-22T11:18:58.358Z,28.06
2017-08-22T11:19:58.378Z,28.13
2017-08-22T11:20:58.398Z,27.75
2017-08-22T11:21:58.415Z,27.81
2017-08-22T11:22:58.435Z,27.88
2017-08-22T11:23:58.452Z,28.19
2017-08-22T11:24:58.472Z,28.00
2017-08-22T11:25:58.490Z,27.94
2017-08-22T11:26:58.508Z,27.56
2017-08-22T11:27:58.529Z,27.06
2017-08-22T11:28:58.547Z,26.63
2017-08-22T11:29:58.566Z,26.38
2017-08-22T11:30:58.584Z,25.94
2017-08-22T11:31:58.601Z,25.75
2017-08-22T11:32:58.621Z,25.50
2017-08-22T11:33:58.639Z,25.31
2017-08-22T11:34:58.656Z,25.19
2017-08-22T11:35:58.679Z,25.13
2017-08-22T11:36:58.691Z,24.94
2017-08-22T11:37:58.714Z,24.56
2017-08-22T11:38:58.734Z,24.25
2017-08-22T11:39:58.753Z,24.13
2017-08-22T11:40:58.764Z,23.94
2017-08-22T11:41:58.787Z,23.69
2017-08-22T11:42:58.809Z,23.50
2017-08-22T11:43:58.822Z,23.38
2017-08-22T11:44:58.847Z,23.25
2017-08-22T11:45:58.858Z,23.19
2017-08-22T11:46:58.881Z,23.19
2017-08-22T11:47:58.895Z,23.06
2017-08-22T11:48:58.910Z,23.00
2017-08-22T11:49:58.930Z,23.00
2017-08-22T11:50:58.947Z,23.00
2017-08-22T11:51:58.967Z,23.06
2017-08-22T11:52:58.982Z,23.00
2017-08-22T11:53:59.002Z,23.00
2017-08-22T11:54:59.020Z,23.00
2017-08-22T11:55:59.037Z,22.94
2017-08-22T11:56:59.054Z,22.88
2017-08-22T11:57:59.073Z,22.94
2017-08-22T11:58:59.090Z,23.00
2017-08-22T11:59:59.107Z,23.06
2017-08-22T12:00:59.127Z,23.13
2017-08-22T12:01:59.150Z,23.13
2017-08-22T12:02:59.161Z,23.06
2017-08-22T12:03:59.180Z,22.94
2017-08-22T12:04:59.196Z,22.81
2017-08-22T12:05:59.214Z,22.69
2017-08-22T12:06:59.234Z,22.56
2017-08-22T12:07:59.248Z,22.50
2017-08-22T12:08:59.268Z,22.44
2017-08-22T12:09:59.285Z,22.38
2017-08-22T12:10:59.304Z,22.31
2017-08-22T12:11:59.326Z,22.25
2017-08-22T12:12:59.338Z,22.25
2017-08-22T12:13:59.356Z,22.25
2017-08-22T12:14:59.373Z,22.25
2017-08-22T12:15:59.392Z,22.25
2017-08-22T12:16:59.405Z,22.31
2017-08-22T12:17:59.424Z,22.31
2017-08-22T12:18:59.443Z,22.44
2017-08-22T12:19:59.459Z,22.50
2017-08-22T12:20:59.502Z,22.50
2017-08-22T12:21:59.494Z,22.44
2017-08-22T12:22:59.515Z,22.38
2017-08-22T12:23:59.528Z,22.38
2017-08-22T12:24:59.546Z,22.31
2017-08-22T12:25:59.564Z,22.31
2017-08-22T12:26:59.584Z,22.31
2017-08-22T12:27:59.599Z,22.25
2017-08-22T12:28:59.632Z,22.31
2017-08-22T12:29:59.634Z,22.31
2017-08-22T12:30:59.660Z,22.25
2017-08-22T12:31:59.668Z,22.25
2017-08-22T12:32:59.684Z,22.13
2017-08-22T12:33:59.699Z,22.13
2017-08-22T12:34:59.720Z,22.13
2017-08-22T12:35:59.738Z,22.13
2017-08-22T12:36:59.755Z,22.19
2017-08-22T12:37:59.918Z,22.19
2017-08-22T12:39:00.706Z,22.25
2017-08-22T12:39:59.820Z,22.25
2017-08-22T12:41:14.432Z,22.31
2017-08-22T12:47:24.641Z,23.13
2017-08-22T12:48:24.461Z,23.00
2017-08-22T12:49:24.453Z,22.94
2017-08-22T12:50:24.478Z,22.94
2017-08-22T12:51:24.586Z,22.81
2017-08-22T12:54:24.316Z,22.56
2017-08-22T12:55:24.200Z,22.31
2017-08-22T12:56:24.219Z,22.13
2017-08-22T12:57:24.229Z,21.88
2017-08-22T12:58:24.252Z,21.63
2017-08-22T12:59:24.464Z,21.50
2017-08-22T13:00:24.871Z,21.44
2017-08-22T13:01:24.295Z,21.31
2017-08-22T13:02:24.309Z,21.19
2017-08-22T13:03:24.357Z,20.94
2017-08-22T13:06:37.595Z,20.75
2017-08-22T13:07:27.083Z,20.75
2017-08-22T13:10:40.048Z,20.81
2017-08-22T13:11:29.861Z,20.63
2017-08-22T13:14:29.588Z,20.56
2017-08-22T13:15:31.426Z,20.56
2017-08-22T13:16:31.528Z,20.56
2017-08-22T13:17:31.480Z,20.56
2017-08-22T13:20:43.052Z,20.50